createdAt,value
2023-02-22T00:02:10.544Z,95228.09
2023-02-22T00:05:55.289Z,95218.38
2023-02-22T00:09:39.380Z,95215.88
2023-02-22T00:13:22.860Z,95219.88
2023-02-22T00:17:05.590Z,95222.06
2023-02-22T00:20:48.355Z,95230.22
2023-02-22T00:24:31.370Z,95222.13
2023-02-22T00:28:16.999Z,95222.53
2023-02-22T00:31:59.780Z,95226.25
2023-02-22T00:35:45.847Z,95224.41
2023-02-22T00:39:28.502Z,95221.53
2023-02-22T00:43:11.228Z,95222.25
2023-02-22T00:46:55.292Z,95218.34
2023-02-22T00:50:38.481Z,95209.78
2023-02-22T00:54:21.217Z,95210.53
2023-02-22T00:58:04.606Z,95207.06
2023-02-22T01:01:47.572Z,95207.78
2023-02-22T01:05:33.202Z,95208.16
2023-02-22T01:09:16.184Z,95200.94
2023-02-22T01:12:59.902Z,95192.28
2023-02-22T01:16:42.753Z,95187.25
2023-02-22T01:20:26.202Z,95185.63
2023-02-22T01:24:10.489Z,95179.16
2023-02-22T01:27:54.536Z,95173.28
2023-02-22T01:31:37.220Z,95179.88
2023-02-22T01:35:23.118Z,95177.34
2023-02-22T01:39:05.777Z,95184.56
2023-02-22T01:42:53.383Z,95176.91
2023-02-22T01:46:36.078Z,95175.22
2023-02-22T01:50:18.746Z,95182.81
2023-02-22T01:54:03.252Z,95172.91
2023-02-22T01:57:46.000Z,95178.69
2023-02-22T02:01:30.971Z,95177.59
2023-02-22T02:05:14.576Z,95174.47
2023-02-22T02:09:01.999Z,95164.94
2023-02-22T02:12:46.977Z,95165.81
2023-02-22T02:16:36.752Z,95158.25
2023-02-22T02:20:25.498Z,95157.63
2023-02-22T02:25:05.152Z,95147.91
2023-02-22T02:29:08.343Z,95141.41
2023-02-22T02:32:58.706Z,95133.69
2023-02-22T02:36:47.178Z,95128.38
2023-02-22T02:40:36.216Z,95126.94
2023-02-22T02:44:23.507Z,95128.91
2023-02-22T02:48:10.959Z,95123.06
2023-02-22T02:51:55.048Z,95111.63
2023-02-22T02:55:38.653Z,95104.94
2023-02-22T02:59:29.290Z,95101.69
2023-02-22T03:03:44.738Z,95102.88
2023-02-22T03:07:40.890Z,95107.28
2023-02-22T03:11:27.272Z,95105.84
2023-02-22T03:15:18.719Z,95110.69
2023-02-22T03:19:06.040Z,95105.66
2023-02-22T03:22:56.426Z,95102.44
2023-02-22T03:26:41.517Z,95102.59
2023-02-22T03:30:27.786Z,95101.94
2023-02-22T03:34:13.289Z,95098.34
2023-02-22T03:38:00.372Z,95106.03
2023-02-22T03:41:45.350Z,95122.50
2023-02-22T03:45:30.546Z,95129.03
2023-02-22T03:49:15.593Z,95129.81
2023-02-22T03:53:00.125Z,95124.88
2023-02-22T03:56:50.000Z,95117.22
2023-02-22T04:00:34.508Z,95122.78
2023-02-22T04:04:18.434Z,95119.53
2023-02-22T04:08:02.563Z,95108.75
2023-02-22T04:11:45.339Z,95108.41
2023-02-22T04:15:28.022Z,95117.22
2023-02-22T04:19:10.687Z,95112.34
2023-02-22T04:22:54.032Z,95107.50
2023-02-22T04:26:38.110Z,95105.88
2023-02-22T04:30:21.508Z,95105.06
2023-02-22T04:34:04.551Z,95104.06
2023-02-22T04:37:47.236Z,95100.31
2023-02-22T04:41:31.575Z,95098.41
2023-02-22T04:45:15.643Z,95105.88
2023-02-22T04:48:58.686Z,95089.06
2023-02-22T04:52:41.756Z,95089.69
2023-02-22T04:56:24.570Z,95095.63
2023-02-22T05:00:10.230Z,95089.97
2023-02-22T05:03:54.483Z,95091.59
2023-02-22T05:07:37.622Z,95082.69
2023-02-22T05:11:20.279Z,95085.00
2023-02-22T05:15:04.262Z,95082.13
2023-02-22T05:18:46.909Z,95079.41
2023-02-22T05:22:31.082Z,95076.53
2023-02-22T05:26:13.781Z,95078.31
2023-02-22T05:29:56.430Z,95066.56
2023-02-22T05:33:39.595Z,95074.03
2023-02-22T05:37:22.311Z,95069.16
2023-02-22T05:41:09.223Z,95065.47
2023-02-22T05:44:52.036Z,95070.88
2023-02-22T05:48:34.820Z,95068.25
2023-02-22T05:52:17.641Z,95068.56
2023-02-22T05:56:00.399Z,95066.50
2023-02-22T05:59:44.500Z,95066.03
2023-02-22T06:03:27.295Z,95059.22
2023-02-22T06:07:09.956Z,95057.41
2023-02-22T06:10:52.745Z,95060.19
2023-02-22T06:14:35.897Z,95064.06
2023-02-22T06:18:20.111Z,95066.84
2023-02-22T06:22:03.138Z,95064.88
2023-02-22T06:25:45.851Z,95070.72
2023-02-22T06:29:30.199Z,95072.53
2023-02-22T06:33:13.047Z,95074.16
2023-02-22T06:36:59.133Z,95063.72
2023-02-22T06:40:43.777Z,95075.44
2023-02-22T06:44:26.981Z,95081.94
2023-02-22T06:48:10.188Z,95083.19
2023-02-22T06:51:52.903Z,95088.41
2023-02-22T06:55:37.359Z,95093.97
2023-02-22T06:59:20.011Z,95101.16
2023-02-22T07:03:02.807Z,95104.06
2023-02-22T07:06:47.546Z,95098.13
2023-02-22T07:10:32.329Z,95099.03
2023-02-22T07:14:17.729Z,95097.69
2023-02-22T07:18:00.920Z,95099.59
2023-02-22T07:21:43.594Z,95095.47
2023-02-22T07:25:26.539Z,95100.94
2023-02-22T07:29:11.317Z,95103.66
2023-02-22T07:32:56.110Z,95093.47
2023-02-22T07:36:38.798Z,95096.84
2023-02-22T07:40:22.043Z,95097.78
2023-02-22T07:44:05.015Z,95088.22
2023-02-22T07:47:48.215Z,95087.50
2023-02-22T07:51:32.317Z,95091.44
2023-02-22T07:55:16.768Z,95082.53
2023-02-22T07:59:00.684Z,95086.66
2023-02-22T08:02:43.683Z,95083.97
2023-02-22T08:06:28.168Z,95090.69
2023-02-22T08:10:12.484Z,95081.31
2023-02-22T08:13:55.144Z,95079.00
2023-02-22T08:17:38.463Z,95076.28
2023-02-22T08:21:21.204Z,95072.91
2023-02-22T08:25:04.041Z,95074.41
2023-02-22T08:28:48.098Z,95072.75
2023-02-22T08:32:30.991Z,95062.22
2023-02-22T08:36:13.740Z,95059.41
2023-02-22T08:39:56.765Z,95057.47
2023-02-22T08:43:39.445Z,95058.41
2023-02-22T08:47:23.475Z,95058.66
2023-02-22T08:51:06.376Z,95052.81
2023-02-22T08:54:49.446Z,95051.25
2023-02-22T08:58:32.096Z,95051.47
2023-02-22T09:02:17.365Z,95054.91
2023-02-22T09:06:01.593Z,95050.72
2023-02-22T09:09:44.496Z,95046.53
2023-02-22T09:13:27.186Z,95038.50
2023-02-22T09:17:10.217Z,95037.91
2023-02-22T09:20:53.290Z,95036.09
2023-02-22T09:24:39.566Z,95032.25
2023-02-22T09:28:22.371Z,95024.38
2023-02-22T09:32:05.738Z,95031.06
2023-02-22T09:35:50.047Z,95030.66
2023-02-22T09:39:37.461Z,95026.38
2023-02-22T09:43:35.666Z,95021.91
2023-02-22T09:47:20.249Z,95027.75
2023-02-22T09:51:04.611Z,95020.41
2023-02-22T09:54:51.835Z,95011.50
2023-02-22T09:58:37.839Z,95015.25
2023-02-22T10:02:26.414Z,95001.03
2023-02-22T10:06:12.898Z,94997.94
2023-02-22T10:09:57.285Z,94994.00
2023-02-22T10:13:51.266Z,95004.78
2023-02-22T10:17:37.477Z,94989.91
2023-02-22T10:21:32.112Z,94987.16
2023-02-22T10:25:19.275Z,94986.31
2023-02-22T10:29:05.434Z,94986.03
2023-02-22T10:32:52.536Z,94990.19
2023-02-22T10:36:39.081Z,94986.06
2023-02-22T10:40:32.196Z,94981.69
2023-02-22T10:44:16.981Z,94978.34
2023-02-22T10:48:01.663Z,94976.16
2023-02-22T10:51:44.358Z,94976.16
2023-02-22T10:55:27.462Z,94979.22
2023-02-22T10:59:10.194Z,94971.25
2023-02-22T11:02:56.096Z,94980.72
2023-02-22T11:06:39.766Z,94960.47
2023-02-22T11:10:38.739Z,94961.53
2023-02-22T11:14:28.384Z,94952.13
2023-02-22T11:18:24.288Z,94936.22
2023-02-22T11:22:12.050Z,94936.00
2023-02-22T11:26:03.057Z,94923.81
2023-02-22T11:29:51.025Z,94921.63
2023-02-22T11:33:35.151Z,94920.81
2023-02-22T11:37:25.926Z,94922.03
2023-02-22T11:41:15.597Z,94924.00
2023-02-22T11:45:13.519Z,94912.91
2023-02-22T11:49:02.161Z,94910.69
2023-02-22T11:52:47.120Z,94905.09
2023-02-22T11:56:38.103Z,94900.22
2023-02-22T12:00:27.152Z,94889.34
2023-02-22T12:04:45.915Z,94888.06
2023-02-22T12:08:37.351Z,94885.31
2023-02-22T12:12:24.176Z,94886.94
2023-02-22T12:16:15.650Z,94885.63
2023-02-22T12:20:06.906Z,94887.88
2023-02-22T12:23:55.763Z,94874.19
2023-02-22T12:27:42.369Z,94874.34
2023-02-22T12:31:28.591Z,94865.63
2023-02-22T12:35:16.659Z,94873.13
2023-02-22T12:39:07.603Z,94865.16
2023-02-22T12:42:56.921Z,94860.72
2023-02-22T12:46:42.788Z,94858.66
2023-02-22T12:50:28.916Z,94855.25
2023-02-22T12:54:19.951Z,94854.25
2023-02-22T12:58:08.724Z,94847.81
2023-02-22T13:01:53.734Z,94843.16
2023-02-22T13:05:40.170Z,94836.63
2023-02-22T13:09:49.534Z,94837.22
2023-02-22T13:13:37.994Z,94835.06
2023-02-22T13:17:26.231Z,94823.88
2023-02-22T13:21:16.629Z,94820.31
2023-02-22T13:25:05.810Z,94829.13
2023-02-22T13:28:52.008Z,94822.22
2023-02-22T13:32:44.189Z,94810.81
2023-02-22T13:36:38.643Z,94815.19
2023-02-22T13:40:50.899Z,94816.38
2023-02-22T13:45:09.313Z,94800.44
2023-02-22T13:49:24.127Z,94802.88
2023-02-22T13:53:12.631Z,94812.66
2023-02-22T13:56:57.633Z,94805.66
2023-02-22T14:00:48.086Z,94802.41
2023-02-22T14:04:42.937Z,94800.25
2023-02-22T14:08:42.209Z,94801.28
2023-02-22T14:12:49.987Z,94801.91
2023-02-22T14:16:33.890Z,94805.72
2023-02-22T14:20:30.085Z,94806.22
2023-02-22T14:24:15.427Z,94804.63
2023-02-22T14:27:59.755Z,94802.25
2023-02-22T14:32:01.711Z,94806.88
2023-02-22T14:35:50.175Z,94805.78
2023-02-22T14:39:38.306Z,94796.06
2023-02-22T14:43:23.795Z,94810.00
2023-02-22T14:47:08.998Z,94804.13
2023-02-22T14:50:54.859Z,94807.41
2023-02-22T14:54:46.835Z,94807.59
2023-02-22T14:58:36.368Z,94818.91
2023-02-22T15:02:20.634Z,94813.75
2023-02-22T15:06:07.491Z,94816.72
2023-02-22T15:09:51.112Z,94819.59
2023-02-22T15:13:35.237Z,94812.19
2023-02-22T15:17:21.063Z,94815.56
2023-02-22T15:21:07.172Z,94814.16
2023-02-22T15:24:59.980Z,94808.91
2023-02-22T15:28:44.175Z,94807.94
2023-02-22T15:32:33.448Z,94811.88
2023-02-22T15:36:18.469Z,94817.47
2023-02-22T15:40:14.900Z,94815.50
2023-02-22T15:44:22.804Z,94814.16
2023-02-22T15:48:07.964Z,94811.19
2023-02-22T15:52:03.718Z,94816.75
2023-02-22T15:55:49.276Z,94814.28
2023-02-22T15:59:34.994Z,94811.81
2023-02-22T16:03:23.024Z,94818.25
2023-02-22T16:07:16.796Z,94817.78
2023-02-22T16:11:01.002Z,94825.25
2023-02-22T16:14:45.425Z,94820.34
2023-02-22T16:18:31.543Z,94835.28
2023-02-22T16:22:27.454Z,94829.94
2023-02-22T16:26:25.135Z,94826.06
2023-02-22T16:30:25.822Z,94828.31
2023-02-22T16:34:11.140Z,94833.72
2023-02-22T16:38:00.340Z,94841.38
2023-02-22T16:41:47.100Z,94838.28
2023-02-22T16:45:31.325Z,94852.78
2023-02-22T16:49:14.770Z,94846.97
2023-02-22T16:52:59.634Z,94850.91
2023-02-22T16:56:42.363Z,94853.19
2023-02-22T17:00:31.969Z,94847.56
2023-02-22T17:04:17.989Z,94857.53
2023-02-22T17:08:00.699Z,94856.63
2023-02-22T17:11:44.204Z,94858.00
2023-02-22T17:15:30.221Z,94860.94
2023-02-22T17:19:17.748Z,94867.25
2023-02-22T17:23:02.245Z,94872.88
2023-02-22T17:26:44.922Z,94876.53
2023-02-22T17:30:28.096Z,94872.06
2023-02-22T17:34:11.437Z,94872.41
2023-02-22T17:37:55.542Z,94878.28
2023-02-22T17:41:40.284Z,94873.00
2023-02-22T17:45:24.325Z,94879.97
2023-02-22T17:49:07.069Z,94874.34
2023-02-22T17:52:52.005Z,94879.06
2023-02-22T17:56:36.156Z,94880.75
2023-02-22T18:00:23.723Z,94875.81
2023-02-22T18:04:07.194Z,94879.47
2023-02-22T18:07:49.839Z,94870.84
2023-02-22T18:11:32.581Z,94876.41
2023-02-22T18:15:17.613Z,94882.22
2023-02-22T18:19:01.567Z,94887.56
2023-02-22T18:22:45.336Z,94884.09
2023-02-22T18:26:28.468Z,94882.75
2023-02-22T18:30:12.996Z,94887.59
2023-02-22T18:33:57.510Z,94883.63
2023-02-22T18:37:40.278Z,94881.72
2023-02-22T18:41:25.942Z,94876.59
2023-02-22T18:45:09.201Z,94885.59
2023-02-22T18:48:54.005Z,94879.59
2023-02-22T18:52:45.675Z,94888.00
2023-02-22T18:56:30.524Z,94884.44
2023-02-22T19:00:18.747Z,94878.63
2023-02-22T19:04:01.521Z,94882.72
2023-02-22T19:07:45.731Z,94876.50
2023-02-22T19:11:28.540Z,94887.22
2023-02-22T19:15:12.098Z,94888.91
2023-02-22T19:18:57.099Z,94886.09
2023-02-22T19:22:40.201Z,94892.31
2023-02-22T19:26:25.488Z,94890.78
2023-02-22T19:30:09.959Z,94895.66
2023-02-22T19:33:54.872Z,94894.72
2023-02-22T19:37:38.515Z,94905.09
2023-02-22T19:41:23.966Z,94910.38
2023-02-22T19:45:08.623Z,94909.22
2023-02-22T19:48:52.098Z,94905.59
2023-02-22T19:52:35.494Z,94912.50
2023-02-22T19:56:19.998Z,94904.84
2023-02-22T20:00:10.800Z,94916.59
2023-02-22T20:03:59.747Z,94920.03
2023-02-22T20:07:42.621Z,94914.19
2023-02-22T20:11:26.800Z,94922.06
2023-02-22T20:15:11.832Z,94917.81
2023-02-22T20:18:56.232Z,94921.88
2023-02-22T20:22:40.536Z,94917.44
2023-02-22T20:26:26.671Z,94927.31
2023-02-22T20:30:10.962Z,94921.56
2023-02-22T20:33:57.029Z,94924.59
2023-02-22T20:37:42.585Z,94919.75
2023-02-22T20:41:28.497Z,94920.19
2023-02-22T20:45:15.131Z,94927.50
2023-02-22T20:49:00.869Z,94933.97
2023-02-22T20:52:45.254Z,94926.50
2023-02-22T20:56:30.266Z,94936.00
2023-02-22T21:00:18.054Z,94926.50
2023-02-22T21:04:02.906Z,94928.09
2023-02-22T21:07:45.564Z,94932.34
2023-02-22T21:11:31.279Z,94916.81
2023-02-22T21:15:14.375Z,94923.88
2023-02-22T21:18:58.506Z,94924.28
2023-02-22T21:22:43.827Z,94922.88
2023-02-22T21:26:28.811Z,94916.63
2023-02-22T21:30:12.592Z,94911.38
2023-02-22T21:33:56.961Z,94925.91
2023-02-22T21:37:39.707Z,94926.91
2023-02-22T21:41:27.797Z,94926.91
2023-02-22T21:45:13.624Z,94929.94
2023-02-22T21:48:58.828Z,94932.97
2023-02-22T21:52:41.760Z,94929.97
2023-02-22T21:56:27.507Z,94922.69
2023-02-22T22:00:18.250Z,94926.34
2023-02-22T22:04:01.812Z,94927.34
2023-02-22T22:07:45.062Z,94924.53
2023-02-22T22:11:30.613Z,94926.34
2023-02-22T22:15:16.341Z,94925.13
2023-02-22T22:18:59.029Z,94928.38
2023-02-22T22:22:43.407Z,94929.56
2023-02-22T22:26:27.342Z,94928.38
2023-02-22T22:30:13.216Z,94926.56
2023-02-22T22:33:56.881Z,94925.53
2023-02-22T22:37:39.528Z,94920.91
2023-02-22T22:41:22.415Z,94929.94
2023-02-22T22:45:08.957Z,94914.22
2023-02-22T22:48:52.929Z,94915.44
2023-02-22T22:52:37.567Z,94922.09
2023-02-22T22:56:25.902Z,94913.63
2023-02-22T23:00:26.658Z,94915.84
2023-02-22T23:04:11.992Z,94920.47
2023-02-22T23:07:56.169Z,94926.72
2023-02-22T23:11:44.185Z,94927.94
2023-02-22T23:15:27.079Z,94925.91
2023-02-22T23:19:11.312Z,94936.00
2023-02-22T23:22:54.514Z,94942.44
2023-02-22T23:26:37.119Z,94946.69
2023-02-22T23:30:20.126Z,94939.22
2023-02-22T23:34:10.923Z,94941.84
2023-02-22T23:37:57.818Z,94941.22
2023-02-22T23:41:40.498Z,94939.19
2023-02-22T23:45:24.344Z,94943.59
2023-02-22T23:49:09.770Z,94950.03
2023-02-22T23:52:57.909Z,94953.66
2023-02-22T23:56:47.045Z,94938.72
